sensor_id;sensor_type;location;lat;lon;timestamp;temperature;humidity
2577;DHT22;1298;51.252;6.802;2023-06-01T00:01:00;16.80;99.90
2577;DHT22;1298;51.252;6.802;2023-06-01T00:03:48;16.70;99.90
2577;DHT22;1298;51.252;6.802;2023-06-01T00:06:36;16.70;99.90
2577;DHT22;1298;51.252;6.802;2023-06-01T00:09:22;16.60;99.90
2577;DHT22;1298;51.252;6.802;2023-06-01T00:12:07;16.60;99.90
2577;DHT22;1298;51.252;6.802;2023-06-01T00:14:52;16.50;99.90
2577;DHT22;1298;51.252;6.802;2023-06-01T00:17:38;16.40;99.90
2577;DHT22;1298;51.252;6.802;2023-06-01T00:20:23;16.40;99.90
2577;DHT22;1298;51.252;6.802;2023-06-01T00:23:09;16.40;99.90
2577;DHT22;1298;51.252;6.802;2023-06-01T00:25:55;16.30;99.90
2577;DHT22;1298;51.252;6.802;2023-06-01T00:28:40;16.30;99.90
2577;DHT22;1298;51.252;6.802;2023-06-01T00:31:26;16.20;99.90
2577;DHT22;1298;51.252;6.802;2023-06-01T00:34:11;16.20;99.90
2577;DHT22;1298;51.252;6.802;2023-06-01T00:36:57;16.10;99.90
2577;DHT22;1298;51.252;6.802;2023-06-01T00:39:44;16.10;99.90
2577;DHT22;1298;51.252;6.802;2023-06-01T00:42:29;16.10;99.90
2577;DHT22;1298;51.252;6.802;2023-06-01T00:45:14;16.00;99.90
2577;DHT22;1298;51.252;6.802;2023-06-01T00:47:59;15.90;99.90
2577;DHT22;1298;51.252;6.802;2023-06-01T00:50:45;15.90;99.90
2577;DHT22;1298;51.252;6.802;2023-06-01T00:53:30;15.80;99.90
2577;DHT22;1298;51.252;6.802;2023-06-01T00:56:18;15.80;99.90
2577;DHT22;1298;51.252;6.802;2023-06-01T00:59:05;15.70;99.90
2577;DHT22;1298;51.252;6.802;2023-06-01T01:01:50;15.70;99.90
2577;DHT22;1298;51.252;6.802;2023-06-01T01:04:36;15.60;99.90
2577;DHT22;1298;51.252;6.802;2023-06-01T01:07:24;15.60;99.90
2577;DHT22;1298;51.252;6.802;2023-06-01T01:10:14;15.50;99.90
2577;DHT22;1298;51.252;6.802;2023-06-01T01:13:06;15.50;99.90
2577;DHT22;1298;51.252;6.802;2023-06-01T01:15:53;15.40;99.90
2577;DHT22;1298;51.252;6.802;2023-06-01T01:18:41;15.40;99.90
2577;DHT22;1298;51.252;6.802;2023-06-01T01:21:29;15.30;99.90
2577;DHT22;1298;51.252;6.802;2023-06-01T01:24:21;15.30;99.90
2577;DHT22;1298;51.252;6.802;2023-06-01T01:27:10;15.20;99.90
2577;DHT22;1298;51.252;6.802;2023-06-01T01:30:01;15.10;99.90
2577;DHT22;1298;51.252;6.802;2023-06-01T01:32:49;15.10;99.90
2577;DHT22;1298;51.252;6.802;2023-06-01T01:35:35;15.10;99.90
2577;DHT22;1298;51.252;6.802;2023-06-01T01:38:22;15.00;99.90
2577;DHT22;1298;51.252;6.802;2023-06-01T01:41:08;15.00;99.90
2577;DHT22;1298;51.252;6.802;2023-06-01T01:43:53;14.90;99.90
2577;DHT22;1298;51.252;6.802;2023-06-01T01:46:41;14.90;99.90
2577;DHT22;1298;51.252;6.802;2023-06-01T01:49:30;14.80;99.90
2577;DHT22;1298;51.252;6.802;2023-06-01T01:52:20;14.80;99.90
2577;DHT22;1298;51.252;6.802;2023-06-01T01:55:07;14.80;99.90
2577;DHT22;1298;51.252;6.802;2023-06-01T01:57:53;14.70;99.90
2577;DHT22;1298;51.252;6.802;2023-06-01T02:00:39;14.70;99.90
2577;DHT22;1298;51.252;6.802;2023-06-01T02:03:27;14.60;99.90
2577;DHT22;1298;51.252;6.802;2023-06-01T02:06:12;14.60;99.90
2577;DHT22;1298;51.252;6.802;2023-06-01T02:08:57;14.50;99.90
2577;DHT22;1298;51.252;6.802;2023-06-01T02:11:42;14.50;99.90
2577;DHT22;1298;51.252;6.802;2023-06-01T02:14:28;14.40;99.90
2577;DHT22;1298;51.252;6.802;2023-06-01T02:17:13;14.40;99.90
2577;DHT22;1298;51.252;6.802;2023-06-01T02:20:00;14.30;99.90
2577;DHT22;1298;51.252;6.802;2023-06-01T02:22:46;14.30;99.90
2577;DHT22;1298;51.252;6.802;2023-06-01T02:25:31;14.20;99.90
2577;DHT22;1298;51.252;6.802;2023-06-01T02:28:16;14.10;99.90
2577;DHT22;1298;51.252;6.802;2023-06-01T02:31:01;14.10;99.90
2577;DHT22;1298;51.252;6.802;2023-06-01T02:33:46;14.00;99.90
2577;DHT22;1298;51.252;6.802;2023-06-01T02:36:33;14.00;99.90
2577;DHT22;1298;51.252;6.802;2023-06-01T02:39:18;13.90;99.90
2577;DHT22;1298;51.252;6.802;2023-06-01T02:42:04;13.80;99.90
2577;DHT22;1298;51.252;6.802;2023-06-01T02:44:49;13.80;99.90
2577;DHT22;1298;51.252;6.802;2023-06-01T02:47:34;13.70;99.90
2577;DHT22;1298;51.252;6.802;2023-06-01T02:50:21;13.60;99.90
2577;DHT22;1298;51.252;6.802;2023-06-01T02:53:07;13.60;99.90
2577;DHT22;1298;51.252;6.802;2023-06-01T02:55:56;13.60;99.90
2577;DHT22;1298;51.252;6.802;2023-06-01T02:58:46;13.60;99.90
2577;DHT22;1298;51.252;6.802;2023-06-01T03:01:36;13.50;99.90
2577;DHT22;1298;51.252;6.802;2023-06-01T03:04:24;13.40;99.90
2577;DHT22;1298;51.252;6.802;2023-06-01T03:07:12;13.40;99.90
2577;DHT22;1298;51.252;6.802;2023-06-01T03:10:01;13.40;99.90
2577;DHT22;1298;51.252;6.802;2023-06-01T03:12:46;13.30;99.90
2577;DHT22;1298;51.252;6.802;2023-06-01T03:15:36;13.30;99.90
2577;DHT22;1298;51.252;6.802;2023-06-01T03:18:21;13.20;99.90
2577;DHT22;1298;51.252;6.802;2023-06-01T03:21:07;13.30;99.90
2577;DHT22;1298;51.252;6.802;2023-06-01T03:23:53;13.20;99.90
2577;DHT22;1298;51.252;6.802;2023-06-01T03:26:40;13.20;99.90
2577;DHT22;1298;51.252;6.802;2023-06-01T03:29:28;13.20;99.90
2577;DHT22;1298;51.252;6.802;2023-06-01T03:32:15;13.10;99.90
2577;DHT22;1298;51.252;6.802;2023-06-01T03:35:06;13.10;99.90
2577;DHT22;1298;51.252;6.802;2023-06-01T03:38:01;13.00;99.90
2577;DHT22;1298;51.252;6.802;2023-06-01T03:40:47;12.90;99.90
2577;DHT22;1298;51.252;6.802;2023-06-01T03:43:36;12.90;99.90
2577;DHT22;1298;51.252;6.802;2023-06-01T03:46:23;12.90;99.90
2577;DHT22;1298;51.252;6.802;2023-06-01T03:49:08;12.90;99.90
2577;DHT22;1298;51.252;6.802;2023-06-01T03:51:57;12.90;99.90
2577;DHT22;1298;51.252;6.802;2023-06-01T03:54:46;12.90;99.90
2577;DHT22;1298;51.252;6.802;2023-06-01T03:57:32;12.80;99.90
2577;DHT22;1298;51.252;6.802;2023-06-01T04:00:34;12.70;99.90
2577;DHT22;1298;51.252;6.802;2023-06-01T04:03:21;12.80;99.90
2577;DHT22;1298;51.252;6.802;2023-06-01T04:06:46;12.90;99.90
2577;DHT22;1298;51.252;6.802;2023-06-01T04:10:06;12.90;99.90
2577;DHT22;1298;51.252;6.802;2023-06-01T04:12:52;12.90;99.90
2577;DHT22;1298;51.252;6.802;2023-06-01T04:15:39;12.90;99.90
2577;DHT22;1298;51.252;6.802;2023-06-01T04:18:27;12.90;99.90
2577;DHT22;1298;51.252;6.802;2023-06-01T04:21:12;12.90;99.90
2577;DHT22;1298;51.252;6.802;2023-06-01T04:23:59;12.90;99.90
2577;DHT22;1298;51.252;6.802;2023-06-01T04:26:47;12.90;99.90
2577;DHT22;1298;51.252;6.802;2023-06-01T04:29:34;13.00;99.90
2577;DHT22;1298;51.252;6.802;2023-06-01T04:33:00;12.90;99.90
2577;DHT22;1298;51.252;6.802;2023-06-01T04:35:47;12.90;99.90
2577;DHT22;1298;51.252;6.802;2023-06-01T04:38:33;12.90;99.90
2577;DHT22;1298;51.252;6.802;2023-06-01T04:41:19;13.00;99.90
2577;DHT22;1298;51.252;6.802;2023-06-01T04:44:06;13.00;99.90
2577;DHT22;1298;51.252;6.802;2023-06-01T04:46:57;13.00;99.90
2577;DHT22;1298;51.252;6.802;2023-06-01T04:49:49;13.00;99.90
2577;DHT22;1298;51.252;6.802;2023-06-01T04:52:40;13.00;99.90
2577;DHT22;1298;51.252;6.802;2023-06-01T04:55:28;12.90;99.90
2577;DHT22;1298;51.252;6.802;2023-06-01T04:58:16;12.90;99.90
2577;DHT22;1298;51.252;6.802;2023-06-01T05:01:02;12.90;99.90
2577;DHT22;1298;51.252;6.802;2023-06-01T05:03:47;12.90;99.90
2577;DHT22;1298;51.252;6.802;2023-06-01T05:06:35;12.90;99.90
2577;DHT22;1298;51.252;6.802;2023-06-01T05:09:21;12.90;99.90
2577;DHT22;1298;51.252;6.802;2023-06-01T05:12:09;12.80;99.90
2577;DHT22;1298;51.252;6.802;2023-06-01T05:14:59;12.70;99.90
2577;DHT22;1298;51.252;6.802;2023-06-01T05:17:47;12.70;99.90
2577;DHT22;1298;51.252;6.802;2023-06-01T05:20:40;12.70;99.90
2577;DHT22;1298;51.252;6.802;2023-06-01T05:23:46;12.70;99.90
2577;DHT22;1298;51.252;6.802;2023-06-01T05:26:49;12.70;99.90
2577;DHT22;1298;51.252;6.802;2023-06-01T05:29:44;12.60;99.90
2577;DHT22;1298;51.252;6.802;2023-06-01T05:32:34;12.60;99.90
2577;DHT22;1298;51.252;6.802;2023-06-01T05:35:20;12.70;99.90
2577;DHT22;1298;51.252;6.802;2023-06-01T05:38:07;12.70;99.90
2577;DHT22;1298;51.252;6.802;2023-06-01T05:41:00;12.70;99.90
2577;DHT22;1298;51.252;6.802;2023-06-01T05:43:50;12.80;99.90
2577;DHT22;1298;51.252;6.802;2023-06-01T05:46:36;13.00;99.90
2577;DHT22;1298;51.252;6.802;2023-06-01T05:49:21;13.00;99.90
2577;DHT22;1298;51.252;6.802;2023-06-01T05:52:26;13.00;99.90
2577;DHT22;1298;51.252;6.802;2023-06-01T05:55:28;13.00;99.90
2577;DHT22;1298;51.252;6.802;2023-06-01T05:58:34;13.10;99.90
2577;DHT22;1298;51.252;6.802;2023-06-01T06:01:20;13.10;99.90
2577;DHT22;1298;51.252;6.802;2023-06-01T06:04:06;13.10;99.90
2577;DHT22;1298;51.252;6.802;2023-06-01T06:07:17;13.00;99.90
2577;DHT22;1298;51.252;6.802;2023-06-01T06:10:02;13.00;99.90
2577;DHT22;1298;51.252;6.802;2023-06-01T06:12:53;13.10;99.90
2577;DHT22;1298;51.252;6.802;2023-06-01T06:15:49;13.20;99.90
2577;DHT22;1298;51.252;6.802;2023-06-01T06:18:45;13.00;99.90
2577;DHT22;1298;51.252;6.802;2023-06-01T06:21:47;13.10;99.90
2577;DHT22;1298;51.252;6.802;2023-06-01T06:24:50;13.10;99.90
2577;DHT22;1298;51.252;6.802;2023-06-01T06:27:40;13.00;99.90
2577;DHT22;1298;51.252;6.802;2023-06-01T06:30:25;13.10;99.90
2577;DHT22;1298;51.252;6.802;2023-06-01T06:33:19;13.10;99.90
2577;DHT22;1298;51.252;6.802;2023-06-01T06:36:21;13.20;99.90
2577;DHT22;1298;51.252;6.802;2023-06-01T06:39:12;13.20;99.90
2577;DHT22;1298;51.252;6.802;2023-06-01T06:41:59;13.30;99.90
2577;DHT22;1298;51.252;6.802;2023-06-01T06:44:49;13.30;99.90
2577;DHT22;1298;51.252;6.802;2023-06-01T06:47:43;13.00;99.90
2577;DHT22;1298;51.252;6.802;2023-06-01T06:50:32;12.90;99.90
2577;DHT22;1298;51.252;6.802;2023-06-01T06:53:19;12.90;99.90
2577;DHT22;1298;51.252;6.802;2023-06-01T06:56:09;13.00;99.90
2577;DHT22;1298;51.252;6.802;2023-06-01T06:58:57;13.10;99.90
2577;DHT22;1298;51.252;6.802;2023-06-01T07:01:42;13.20;99.90
2577;DHT22;1298;51.252;6.802;2023-06-01T07:04:29;13.30;99.90
2577;DHT22;1298;51.252;6.802;2023-06-01T07:07:26;13.20;99.90
2577;DHT22;1298;51.252;6.802;2023-06-01T07:10:16;13.30;99.90
2577;DHT22;1298;51.252;6.802;2023-06-01T07:13:01;13.30;99.90
2577;DHT22;1298;51.252;6.802;2023-06-01T07:15:46;13.20;99.90
2577;DHT22;1298;51.252;6.802;2023-06-01T07:18:34;13.30;99.90
2577;DHT22;1298;51.252;6.802;2023-06-01T07:21:23;13.40;99.90
2577;DHT22;1298;51.252;6.802;2023-06-01T07:24:11;13.50;99.90
2577;DHT22;1298;51.252;6.802;2023-06-01T07:26:57;13.50;99.90
2577;DHT22;1298;51.252;6.802;2023-06-01T07:29:42;13.50;99.90
2577;DHT22;1298;51.252;6.802;2023-06-01T07:32:29;13.60;99.90
2577;DHT22;1298;51.252;6.802;2023-06-01T07:35:15;13.60;99.90
2577;DHT22;1298;51.252;6.802;2023-06-01T07:38:00;13.80;99.90
2577;DHT22;1298;51.252;6.802;2023-06-01T07:40:50;13.80;99.90
2577;DHT22;1298;51.252;6.802;2023-06-01T07:43:36;14.00;99.90
2577;DHT22;1298;51.252;6.802;2023-06-01T07:46:21;14.00;99.90
2577;DHT22;1298;51.252;6.802;2023-06-01T07:49:06;14.10;99.90
2577;DHT22;1298;51.252;6.802;2023-06-01T07:51:52;14.20;99.90
2577;DHT22;1298;51.252;6.802;2023-06-01T07:54:37;14.30;99.90
2577;DHT22;1298;51.252;6.802;2023-06-01T07:57:26;14.50;99.90
2577;DHT22;1298;51.252;6.802;2023-06-01T08:00:12;14.50;99.90
2577;DHT22;1298;51.252;6.802;2023-06-01T08:02:57;14.60;99.90
2577;DHT22;1298;51.252;6.802;2023-06-01T08:05:43;14.80;99.90
2577;DHT22;1298;51.252;6.802;2023-06-01T08:08:28;14.80;99.90
2577;DHT22;1298;51.252;6.802;2023-06-01T08:11:14;14.80;99.90
2577;DHT22;1298;51.252;6.802;2023-06-01T08:14:00;14.80;99.90
2577;DHT22;1298;51.252;6.802;2023-06-01T08:16:47;14.90;99.90
2577;DHT22;1298;51.252;6.802;2023-06-01T08:19:34;14.90;99.90
2577;DHT22;1298;51.252;6.802;2023-06-01T08:22:19;15.10;99.90
2577;DHT22;1298;51.252;6.802;2023-06-01T08:25:06;15.10;99.90
2577;DHT22;1298;51.252;6.802;2023-06-01T08:27:52;14.90;99.90
2577;DHT22;1298;51.252;6.802;2023-06-01T08:30:39;15.00;99.90
2577;DHT22;1298;51.252;6.802;2023-06-01T08:33:27;15.00;99.90
2577;DHT22;1298;51.252;6.802;2023-06-01T08:36:13;15.20;99.90
2577;DHT22;1298;51.252;6.802;2023-06-01T08:38:58;15.30;99.90
2577;DHT22;1298;51.252;6.802;2023-06-01T08:41:45;15.40;99.90
2577;DHT22;1298;51.252;6.802;2023-06-01T08:44:34;15.60;99.90
2577;DHT22;1298;51.252;6.802;2023-06-01T08:47:21;15.70;99.90
2577;DHT22;1298;51.252;6.802;2023-06-01T08:50:09;16.00;99.90
2577;DHT22;1298;51.252;6.802;2023-06-01T08:52:54;16.10;99.90
2577;DHT22;1298;51.252;6.802;2023-06-01T08:55:41;16.10;99.90
2577;DHT22;1298;51.252;6.802;2023-06-01T08:58:26;16.20;99.90
2577;DHT22;1298;51.252;6.802;2023-06-01T09:01:15;16.20;99.90
2577;DHT22;1298;51.252;6.802;2023-06-01T09:04:03;16.30;99.90
2577;DHT22;1298;51.252;6.802;2023-06-01T09:06:49;16.40;99.90
2577;DHT22;1298;51.252;6.802;2023-06-01T09:09:34;16.40;99.90
2577;DHT22;1298;51.252;6.802;2023-06-01T09:12:21;16.40;99.90
2577;DHT22;1298;51.252;6.802;2023-06-01T09:15:09;16.40;99.90
2577;DHT22;1298;51.252;6.802;2023-06-01T09:18:03;16.20;99.90
2577;DHT22;1298;51.252;6.802;2023-06-01T09:20:51;16.30;99.90
2577;DHT22;1298;51.252;6.802;2023-06-01T09:23:38;16.30;99.90
2577;DHT22;1298;51.252;6.802;2023-06-01T09:26:25;16.40;99.90
2577;DHT22;1298;51.252;6.802;2023-06-01T09:29:11;16.40;99.90
2577;DHT22;1298;51.252;6.802;2023-06-01T09:31:57;16.40;99.90
2577;DHT22;1298;51.252;6.802;2023-06-01T09:34:44;16.50;99.90
2577;DHT22;1298;51.252;6.802;2023-06-01T09:37:31;16.60;99.90
2577;DHT22;1298;51.252;6.802;2023-06-01T09:40:17;16.80;99.90
2577;DHT22;1298;51.252;6.802;2023-06-01T09:43:03;16.90;99.90
2577;DHT22;1298;51.252;6.802;2023-06-01T09:49:03;17.20;99.90
2577;DHT22;1298;51.252;6.802;2023-06-01T09:51:49;17.40;99.90
2577;DHT22;1298;51.252;6.802;2023-06-01T09:54:37;17.50;99.90
2577;DHT22;1298;51.252;6.802;2023-06-01T09:57:24;17.40;99.90
2577;DHT22;1298;51.252;6.802;2023-06-01T10:00:10;17.50;99.90
2577;DHT22;1298;51.252;6.802;2023-06-01T10:03:06;17.60;99.90
2577;DHT22;1298;51.252;6.802;2023-06-01T10:05:52;17.60;99.90
2577;DHT22;1298;51.252;6.802;2023-06-01T10:08:37;17.80;99.90
2577;DHT22;1298;51.252;6.802;2023-06-01T10:11:25;17.90;99.90
2577;DHT22;1298;51.252;6.802;2023-06-01T10:14:10;17.80;99.90
2577;DHT22;1298;51.252;6.802;2023-06-01T10:16:56;17.70;99.90
2577;DHT22;1298;51.252;6.802;2023-06-01T10:19:43;17.80;99.90
2577;DHT22;1298;51.252;6.802;2023-06-01T10:22:28;18.00;99.90
2577;DHT22;1298;51.252;6.802;2023-06-01T10:25:14;18.10;99.90
2577;DHT22;1298;51.252;6.802;2023-06-01T10:28:04;18.20;99.90
2577;DHT22;1298;51.252;6.802;2023-06-01T10:33:52;18.20;99.90
2577;DHT22;1298;51.252;6.802;2023-06-01T10:39:42;18.30;99.90
2577;DHT22;1298;51.252;6.802;2023-06-01T10:42:34;18.50;99.90
2577;DHT22;1298;51.252;6.802;2023-06-01T10:45:37;18.50;99.90
2577;DHT22;1298;51.252;6.802;2023-06-01T10:48:50;18.40;99.90
2577;DHT22;1298;51.252;6.802;2023-06-01T10:51:36;18.60;99.90
2577;DHT22;1298;51.252;6.802;2023-06-01T10:54:28;18.70;99.90
2577;DHT22;1298;51.252;6.802;2023-06-01T10:57:17;18.80;99.90
2577;DHT22;1298;51.252;6.802;2023-06-01T11:00:11;18.90;99.90
2577;DHT22;1298;51.252;6.802;2023-06-01T11:02:58;19.00;99.90
2577;DHT22;1298;51.252;6.802;2023-06-01T11:05:45;18.80;99.90
2577;DHT22;1298;51.252;6.802;2023-06-01T11:08:51;19.00;99.90
2577;DHT22;1298;51.252;6.802;2023-06-01T11:11:59;19.20;99.90
2577;DHT22;1298;51.252;6.802;2023-06-01T11:17:51;19.30;99.90
2577;DHT22;1298;51.252;6.802;2023-06-01T11:20:40;19.40;99.90
2577;DHT22;1298;51.252;6.802;2023-06-01T11:23:27;19.40;99.90
2577;DHT22;1298;51.252;6.802;2023-06-01T11:26:15;19.20;99.90
2577;DHT22;1298;51.252;6.802;2023-06-01T11:29:06;19.10;99.90
2577;DHT22;1298;51.252;6.802;2023-06-01T11:31:52;19.10;99.90
2577;DHT22;1298;51.252;6.802;2023-06-01T11:34:43;19.30;99.90
2577;DHT22;1298;51.252;6.802;2023-06-01T11:37:34;19.50;99.90
2577;DHT22;1298;51.252;6.802;2023-06-01T11:40:19;19.70;99.90
2577;DHT22;1298;51.252;6.802;2023-06-01T11:43:06;20.00;99.90
2577;DHT22;1298;51.252;6.802;2023-06-01T11:45:59;20.20;99.90
2577;DHT22;1298;51.252;6.802;2023-06-01T11:48:52;20.40;99.90
2577;DHT22;1298;51.252;6.802;2023-06-01T11:51:45;20.30;99.90
2577;DHT22;1298;51.252;6.802;2023-06-01T11:54:32;20.20;99.90
2577;DHT22;1298;51.252;6.802;2023-06-01T11:57:17;20.30;99.90
2577;DHT22;1298;51.252;6.802;2023-06-01T12:00:04;20.40;99.90
2577;DHT22;1298;51.252;6.802;2023-06-01T12:03:06;20.30;99.90
2577;DHT22;1298;51.252;6.802;2023-06-01T12:05:57;20.40;99.90
2577;DHT22;1298;51.252;6.802;2023-06-01T12:08:43;20.50;99.90
2577;DHT22;1298;51.252;6.802;2023-06-01T12:11:30;20.70;99.90
2577;DHT22;1298;51.252;6.802;2023-06-01T12:14:17;20.70;99.90
2577;DHT22;1298;51.252;6.802;2023-06-01T12:17:03;20.50;99.90
2577;DHT22;1298;51.252;6.802;2023-06-01T12:19:49;20.30;99.90
2577;DHT22;1298;51.252;6.802;2023-06-01T12:22:35;20.30;99.90
2577;DHT22;1298;51.252;6.802;2023-06-01T12:25:20;20.50;99.90
2577;DHT22;1298;51.252;6.802;2023-06-01T12:28:07;20.60;99.90
2577;DHT22;1298;51.252;6.802;2023-06-01T12:31:07;20.70;99.90
2577;DHT22;1298;51.252;6.802;2023-06-01T12:33:53;21.10;99.90
2577;DHT22;1298;51.252;6.802;2023-06-01T12:36:39;21.00;99.90
2577;DHT22;1298;51.252;6.802;2023-06-01T12:39:34;20.60;99.90
2577;DHT22;1298;51.252;6.802;2023-06-01T12:42:33;20.90;99.90
2577;DHT22;1298;51.252;6.802;2023-06-01T12:45:20;21.10;99.90
2577;DHT22;1298;51.252;6.802;2023-06-01T12:48:05;20.80;99.90
2577;DHT22;1298;51.252;6.802;2023-06-01T12:50:51;21.40;99.90
2577;DHT22;1298;51.252;6.802;2023-06-01T12:53:36;21.90;99.90
2577;DHT22;1298;51.252;6.802;2023-06-01T12:56:22;22.30;99.90
2577;DHT22;1298;51.252;6.802;2023-06-01T12:59:07;22.10;99.90
2577;DHT22;1298;51.252;6.802;2023-06-01T13:01:54;22.50;99.90
2577;DHT22;1298;51.252;6.802;2023-06-01T13:04:39;23.10;99.90
2577;DHT22;1298;51.252;6.802;2023-06-01T13:07:25;23.00;99.90
2577;DHT22;1298;51.252;6.802;2023-06-01T13:10:10;22.50;99.90
2577;DHT22;1298;51.252;6.802;2023-06-01T13:12:55;22.80;99.90
2577;DHT22;1298;51.252;6.802;2023-06-01T13:15:41;23.50;99.90
2577;DHT22;1298;51.252;6.802;2023-06-01T13:18:28;24.00;99.90
2577;DHT22;1298;51.252;6.802;2023-06-01T13:21:13;24.80;99.90
2577;DHT22;1298;51.252;6.802;2023-06-01T13:24:00;25.40;99.90
2577;DHT22;1298;51.252;6.802;2023-06-01T13:26:47;25.40;99.90
2577;DHT22;1298;51.252;6.802;2023-06-01T13:29:32;25.10;99.90
2577;DHT22;1298;51.252;6.802;2023-06-01T13:32:17;24.60;99.90
2577;DHT22;1298;51.252;6.802;2023-06-01T13:35:04;25.30;99.90
2577;DHT22;1298;51.252;6.802;2023-06-01T13:37:50;24.90;99.90
2577;DHT22;1298;51.252;6.802;2023-06-01T13:40:36;24.70;99.90
2577;DHT22;1298;51.252;6.802;2023-06-01T13:43:21;23.90;99.90
2577;DHT22;1298;51.252;6.802;2023-06-01T13:46:08;24.40;99.90
2577;DHT22;1298;51.252;6.802;2023-06-01T13:48:53;24.60;99.90
2577;DHT22;1298;51.252;6.802;2023-06-01T13:51:40;24.10;99.90
2577;DHT22;1298;51.252;6.802;2023-06-01T13:54:26;24.10;99.90
2577;DHT22;1298;51.252;6.802;2023-06-01T13:57:11;23.90;99.90
2577;DHT22;1298;51.252;6.802;2023-06-01T13:59:58;23.60;99.90
2577;DHT22;1298;51.252;6.802;2023-06-01T14:02:43;23.40;99.90
2577;DHT22;1298;51.252;6.802;2023-06-01T14:05:29;23.90;99.90
2577;DHT22;1298;51.252;6.802;2023-06-01T14:08:15;23.90;99.90
2577;DHT22;1298;51.252;6.802;2023-06-01T14:11:01;24.20;99.90
2577;DHT22;1298;51.252;6.802;2023-06-01T14:13:46;24.30;99.90
2577;DHT22;1298;51.252;6.802;2023-06-01T14:16:32;25.00;99.90
2577;DHT22;1298;51.252;6.802;2023-06-01T14:19:17;25.90;99.90
2577;DHT22;1298;51.252;6.802;2023-06-01T14:22:03;26.30;99.90
2577;DHT22;1298;51.252;6.802;2023-06-01T14:24:50;25.70;99.90
2577;DHT22;1298;51.252;6.802;2023-06-01T14:27:36;25.40;99.90
2577;DHT22;1298;51.252;6.802;2023-06-01T14:30:21;24.70;99.90
2577;DHT22;1298;51.252;6.802;2023-06-01T14:33:07;24.40;99.90
2577;DHT22;1298;51.252;6.802;2023-06-01T14:35:53;24.50;99.90
2577;DHT22;1298;51.252;6.802;2023-06-01T14:38:39;24.50;99.90
2577;DHT22;1298;51.252;6.802;2023-06-01T14:41:25;24.60;99.90
2577;DHT22;1298;51.252;6.802;2023-06-01T14:44:11;25.60;99.90
2577;DHT22;1298;51.252;6.802;2023-06-01T14:46:57;25.80;99.90
2577;DHT22;1298;51.252;6.802;2023-06-01T14:49:42;25.70;99.90
2577;DHT22;1298;51.252;6.802;2023-06-01T14:52:27;26.00;99.90
2577;DHT22;1298;51.252;6.802;2023-06-01T14:55:14;26.40;99.90
2577;DHT22;1298;51.252;6.802;2023-06-01T14:58:05;27.00;99.90
2577;DHT22;1298;51.252;6.802;2023-06-01T15:00:50;27.70;99.90
2577;DHT22;1298;51.252;6.802;2023-06-01T15:03:36;27.60;99.90
2577;DHT22;1298;51.252;6.802;2023-06-01T15:06:21;27.80;99.90
2577;DHT22;1298;51.252;6.802;2023-06-01T15:09:12;28.00;99.90
2577;DHT22;1298;51.252;6.802;2023-06-01T15:11:57;27.40;99.90
2577;DHT22;1298;51.252;6.802;2023-06-01T15:14:47;26.70;99.90
2577;DHT22;1298;51.252;6.802;2023-06-01T15:17:38;26.10;99.90
2577;DHT22;1298;51.252;6.802;2023-06-01T15:20:26;26.00;99.90
2577;DHT22;1298;51.252;6.802;2023-06-01T15:23:13;26.00;99.90
2577;DHT22;1298;51.252;6.802;2023-06-01T15:26:00;26.80;99.90
2577;DHT22;1298;51.252;6.802;2023-06-01T15:28:45;27.30;99.90
2577;DHT22;1298;51.252;6.802;2023-06-01T15:31:33;26.30;99.90
2577;DHT22;1298;51.252;6.802;2023-06-01T15:34:18;26.00;99.90
2577;DHT22;1298;51.252;6.802;2023-06-01T15:37:03;26.30;99.90
2577;DHT22;1298;51.252;6.802;2023-06-01T15:39:49;26.90;99.90
2577;DHT22;1298;51.252;6.802;2023-06-01T15:42:37;27.20;99.90
2577;DHT22;1298;51.252;6.802;2023-06-01T15:45:24;26.90;99.90
2577;DHT22;1298;51.252;6.802;2023-06-01T15:48:12;26.80;99.90
2577;DHT22;1298;51.252;6.802;2023-06-01T15:50:57;27.20;99.90
2577;DHT22;1298;51.252;6.802;2023-06-01T15:53:42;27.40;99.90
2577;DHT22;1298;51.252;6.802;2023-06-01T15:56:27;27.90;99.90
2577;DHT22;1298;51.252;6.802;2023-06-01T15:59:12;28.40;99.90
2577;DHT22;1298;51.252;6.802;2023-06-01T16:01:58;29.00;99.90
2577;DHT22;1298;51.252;6.802;2023-06-01T16:04:46;29.70;99.90
2577;DHT22;1298;51.252;6.802;2023-06-01T16:07:31;29.30;99.90
2577;DHT22;1298;51.252;6.802;2023-06-01T16:10:16;28.60;99.90
2577;DHT22;1298;51.252;6.802;2023-06-01T16:13:01;28.40;99.90
2577;DHT22;1298;51.252;6.802;2023-06-01T16:15:46;28.30;99.90
2577;DHT22;1298;51.252;6.802;2023-06-01T16:18:32;28.00;99.90
2577;DHT22;1298;51.252;6.802;2023-06-01T16:21:21;27.40;99.90
2577;DHT22;1298;51.252;6.802;2023-06-01T16:24:06;27.00;99.90
2577;DHT22;1298;51.252;6.802;2023-06-01T16:26:52;26.90;99.90
2577;DHT22;1298;51.252;6.802;2023-06-01T16:29:39;27.70;99.90
2577;DHT22;1298;51.252;6.802;2023-06-01T16:32:24;28.40;99.90
2577;DHT22;1298;51.252;6.802;2023-06-01T16:35:10;28.70;99.90
2577;DHT22;1298;51.252;6.802;2023-06-01T16:37:57;28.00;99.90
2577;DHT22;1298;51.252;6.802;2023-06-01T16:40:42;27.80;99.90
2577;DHT22;1298;51.252;6.802;2023-06-01T16:43:28;28.20;99.90
2577;DHT22;1298;51.252;6.802;2023-06-01T16:46:13;28.70;99.90
2577;DHT22;1298;51.252;6.802;2023-06-01T16:48:58;29.10;99.90
2577;DHT22;1298;51.252;6.802;2023-06-01T16:51:43;29.10;99.90
2577;DHT22;1298;51.252;6.802;2023-06-01T16:54:30;29.20;99.90
2577;DHT22;1298;51.252;6.802;2023-06-01T16:57:15;29.00;99.90
2577;DHT22;1298;51.252;6.802;2023-06-01T17:00:00;29.20;99.90
2577;DHT22;1298;51.252;6.802;2023-06-01T17:02:45;29.40;99.90
2577;DHT22;1298;51.252;6.802;2023-06-01T17:05:31;29.30;99.90
2577;DHT22;1298;51.252;6.802;2023-06-01T17:08:17;29.10;99.90
2577;DHT22;1298;51.252;6.802;2023-06-01T17:11:04;29.50;99.90
2577;DHT22;1298;51.252;6.802;2023-06-01T17:13:49;29.70;99.90
2577;DHT22;1298;51.252;6.802;2023-06-01T17:16:34;28.90;99.90
2577;DHT22;1298;51.252;6.802;2023-06-01T17:19:19;29.20;99.90
2577;DHT22;1298;51.252;6.802;2023-06-01T17:22:05;29.10;99.90
2577;DHT22;1298;51.252;6.802;2023-06-01T17:24:51;28.70;99.90
2577;DHT22;1298;51.252;6.802;2023-06-01T17:27:37;27.80;99.90
2577;DHT22;1298;51.252;6.802;2023-06-01T17:30:24;27.80;99.90
2577;DHT22;1298;51.252;6.802;2023-06-01T17:33:10;26.70;99.90
2577;DHT22;1298;51.252;6.802;2023-06-01T17:35:56;25.70;99.90
2577;DHT22;1298;51.252;6.802;2023-06-01T17:38:41;25.20;99.90
2577;DHT22;1298;51.252;6.802;2023-06-01T17:41:27;24.20;99.90
2577;DHT22;1298;51.252;6.802;2023-06-01T17:44:14;24.50;99.90
2577;DHT22;1298;51.252;6.802;2023-06-01T17:47:00;24.30;99.90
2577;DHT22;1298;51.252;6.802;2023-06-01T17:49:45;24.00;99.90
2577;DHT22;1298;51.252;6.802;2023-06-01T17:52:30;24.40;99.90
2577;DHT22;1298;51.252;6.802;2023-06-01T17:55:15;24.60;99.90
2577;DHT22;1298;51.252;6.802;2023-06-01T17:58:01;24.70;99.90
2577;DHT22;1298;51.252;6.802;2023-06-01T18:00:47;24.60;99.90
2577;DHT22;1298;51.252;6.802;2023-06-01T18:03:33;24.50;99.90
2577;DHT22;1298;51.252;6.802;2023-06-01T18:06:18;24.40;99.90
2577;DHT22;1298;51.252;6.802;2023-06-01T18:09:04;24.30;99.90
2577;DHT22;1298;51.252;6.802;2023-06-01T18:11:49;24.80;99.90
2577;DHT22;1298;51.252;6.802;2023-06-01T18:14:34;24.70;99.90
2577;DHT22;1298;51.252;6.802;2023-06-01T18:17:21;24.50;99.90
2577;DHT22;1298;51.252;6.802;2023-06-01T18:20:10;24.70;99.90
2577;DHT22;1298;51.252;6.802;2023-06-01T18:22:55;25.00;99.90
2577;DHT22;1298;51.252;6.802;2023-06-01T18:25:40;24.50;99.90
2577;DHT22;1298;51.252;6.802;2023-06-01T18:28:25;24.00;99.90